Time;durP1;ratioP1;P1;durP2;ratioP2;P2;SDS_P1;SDS_P2;PMS_P1;PMS_P2;Temp;Humidity;BMP_temperature;BMP_pressure;BME280_temperature;BME280_humidity;BME280_pressure;Samples;Min_cycle;Max_cycle;Signal;HPM_P1;HPM_P2
2022/06/28 00:01:57;;;;;;;;;0.00;0.00;;;;;21.91;46.94;101789.34;5025304;28;45642;-78
2022/06/28 00:04:22;;;;;;;;;0.00;0.00;;;;;22.01;46.45;101804.91;5026103;28;46603;-78
2022/06/28 00:06:48;;;;;;;;;0.00;0.00;;;;;21.98;47.01;101797.88;5025642;28;45893;-78
2022/06/28 00:09:14;;;;;;;;;0.00;0.00;;;;;22.01;46.69;101800.38;5027582;28;45403;-78
2022/06/28 00:11:43;;;;;;;;;0.00;0.00;;;;;21.91;47.35;101789.34;5026591;28;45445;-79
2022/06/28 00:16:54;;;;;;;;;0.00;0.00;;;;;21.85;47.10;101773.50;5032722;28;45478;-78
2022/06/28 00:19:20;;;;;;;;;2.00;0.00;;;;;21.88;46.88;101784.13;5005870;28;45451;-78
2022/06/28 00:21:47;;;;;;;;;0.00;0.00;;;;;21.85;47.39;101778.09;5020023;28;45365;-78
2022/06/28 00:24:12;;;;;;;;;1.67;1.67;;;;;21.84;46.98;101773.63;5021750;28;46164;-79
2022/06/28 00:26:38;;;;;;;;;0.67;0.67;;;;;21.96;47.35;101794.44;5024741;28;45395;-79
2022/06/28 00:29:03;;;;;;;;;0.00;0.00;;;;;21.86;46.86;101782.50;5025977;28;45740;-79
2022/06/28 00:31:28;;;;;;;;;1.00;1.00;;;;;21.84;47.46;101779.03;5023817;28;45499;-79
2022/06/28 00:33:54;;;;;;;;;0.00;0.00;;;;;21.59;47.19;101740.19;5029326;28;45961;-78
2022/06/28 00:36:19;;;;;;;;;0.67;0.67;;;;;21.87;47.81;101795.13;5023769;28;45434;-79
2022/06/28 00:38:44;;;;;;;;;1.00;1.00;;;;;21.83;47.83;101788.19;5030780;28;45312;-78
2022/06/28 00:41:10;;;;;;;;;0.00;0.00;;;;;21.75;48.00;101783.34;5031631;28;45440;-79
2022/06/28 00:43:35;;;;;;;;;0.67;0.67;;;;;21.57;47.47;101763.84;5030865;28;45434;-78
2022/06/28 00:46:02;;;;;;;;;0.00;0.00;;;;;21.74;47.75;101791.59;5025310;28;45420;-78
2022/06/28 00:48:28;;;;;;;;;0.00;0.00;;;;;21.68;47.87;101782.91;5025236;28;45713;-78
2022/06/28 00:50:53;;;;;;;;;0.67;0.00;;;;;21.67;47.85;101794.75;5027783;28;45573;-79
2022/06/28 00:53:20;;;;;;;;;0.00;0.00;;;;;21.46;48.11;101761.91;5025292;28;46087;-79
2022/06/28 00:55:46;;;;;;;;;1.00;1.00;;;;;21.61;48.16;101787.06;5029002;28;45473;-79
2022/06/28 00:58:13;;;;;;;;;0.00;0.00;;;;;21.59;48.17;101786.31;5027745;28;45523;-79
2022/06/28 01:00:44;;;;;;;;;0.00;0.00;;;;;21.45;48.71;101773.75;5029340;28;45424;-79
2022/06/28 01:03:15;;;;;;;;;1.33;0.33;;;;;21.42;48.51;101770.38;5032332;28;47225;-78
2022/06/28 01:05:41;;;;;;;;;1.67;0.33;;;;;21.50;48.94;101787.00;5029117;28;45561;-79
2022/06/28 01:08:07;;;;;;;;;0.33;0.00;;;;;21.29;48.92;101757.69;5029369;28;45457;-79
2022/06/28 01:10:34;;;;;;;;;0.33;0.00;;;;;21.35;48.50;101771.78;5029156;28;45738;-78
2022/06/28 01:12:59;;;;;;;;;0.00;0.00;;;;;21.39;48.93;101776.00;5024476;28;46585;-78
2022/06/28 01:15:25;;;;;;;;;1.00;1.00;;;;;21.35;49.14;101775.34;5028884;28;45467;-78
2022/06/28 01:17:51;;;;;;;;;0.33;0.33;;;;;21.18;49.20;101751.31;5023528;28;45524;-78
2022/06/28 01:20:16;;;;;;;;;0.33;0.33;;;;;21.29;48.89;101778.53;5025784;28;45564;-78
2022/06/28 01:22:43;;;;;;;;;0.00;0.00;;;;;21.30;48.82;101782.97;5023042;28;45397;-78
2022/06/28 01:25:09;;;;;;;;;1.00;1.00;;;;;21.27;49.48;101794.91;5025771;28;45688;-78
2022/06/28 01:27:35;;;;;;;;;1.67;1.67;;;;;21.25;49.10;101785.16;5024422;28;45529;-78
2022/06/28 01:30:04;;;;;;;;;1.67;0.67;;;;;21.20;49.30;101777.34;5028699;28;45431;-78
2022/06/28 01:32:29;;;;;;;;;1.67;1.67;;;;;21.13;49.87;101781.47;5023673;28;46734;-78
2022/06/28 01:34:55;;;;;;;;;1.00;1.00;;;;;20.93;49.59;101747.69;5030552;28;45480;-78
2022/06/28 01:37:20;;;;;;;;;1.00;1.00;;;;;21.10;49.59;101783.56;5023555;28;45486;-79
2022/06/28 01:39:46;;;;;;;;;1.00;1.00;;;;;21.14;49.54;101787.75;5025547;28;45488;-78
2022/06/28 01:42:12;;;;;;;;;2.67;1.00;;;;;20.94;49.86;101756.69;5028964;28;46044;-78
2022/06/28 01:44:38;;;;;;;;;1.00;1.00;;;;;20.99;50.03;101770.75;5021489;28;45536;-78
2022/06/28 01:47:06;;;;;;;;;1.33;1.33;;;;;21.06;49.57;101789.19;5027342;28;45512;-78
2022/06/28 01:49:31;;;;;;;;;1.00;1.00;;;;;21.00;50.21;101778.78;5015769;28;45455;-78
2022/06/28 01:51:57;;;;;;;;;1.00;1.00;;;;;21.03;50.22;101785.84;5018290;28;47483;-78
2022/06/28 01:54:22;;;;;;;;;1.00;1.00;;;;;21.00;50.24;101784.22;5026948;28;45326;-78
2022/06/28 01:56:47;;;;;;;;;0.33;0.33;;;;;20.96;49.71;101773.69;5027293;28;46444;-78
2022/06/28 01:59:13;;;;;;;;;0.00;0.00;;;;;20.98;49.68;101790.72;5031007;28;45519;-78
2022/06/28 02:01:38;;;;;;;;;1.00;1.00;;;;;20.91;50.34;101767.72;5026816;28;46984;-77
2022/06/28 02:04:21;;;;;;;;;0.00;0.00;;;;;20.89;49.96;101767.84;5031097;28;45411;-78
2022/06/28 02:06:47;;;;;;;;;0.00;0.00;;;;;20.93;49.60;101779.31;5022653;28;45401;-79
2022/06/28 02:09:12;;;;;;;;;0.67;0.67;;;;;20.89;49.66;101770.56;5022105;28;45529;-78
2022/06/28 02:11:38;;;;;;;;;1.00;0.00;;;;;20.90;49.53;101774.13;5023651;28;45643;-78
2022/06/28 02:14:04;;;;;;;;;0.00;0.00;;;;;20.93;49.56;101774.78;5023655;28;45454;-78
2022/06/28 02:16:29;;;;;;;;;1.00;1.00;;;;;20.95;49.49;101771.94;5026420;28;45460;-79
2022/06/28 02:18:55;;;;;;;;;0.00;0.00;;;;;20.86;49.57;101763.50;5029179;28;45456;-78
2022/06/28 02:21:20;;;;;;;;;0.00;0.00;;;;;20.84;49.32;101751.06;5022986;28;45488;-78
2022/06/28 02:23:46;;;;;;;;;0.67;0.67;;;;;20.93;49.22;101771.19;5013932;28;45651;-78
2022/06/28 02:26:13;;;;;;;;;1.67;0.00;;;;;20.92;49.95;101766.75;5027954;28;45534;-79
2022/06/28 02:28:39;;;;;;;;;0.33;0.33;;;;;20.80;49.35;101747.69;5024903;28;45575;-79
2022/06/28 02:31:11;;;;;;;;;1.67;1.67;;;;;20.85;49.58;101758.19;5024370;28;46464;-78
2022/06/28 02:33:37;;;;;;;;;0.00;0.00;;;;;20.85;50.04;101769.88;5026645;28;45732;-78
2022/06/28 02:41:32;;;;;;;;;1.33;0.00;;;;;20.71;49.47;101752.88;5030623;28;46070;-78
2022/06/28 02:43:57;;;;;;;;;0.00;0.00;;;;;20.75;49.33;101762.53;5022143;28;45397;-78
2022/06/28 02:46:22;;;;;;;;;0.33;0.33;;;;;20.73;49.18;101762.63;5024663;28;48706;-78
2022/06/28 02:48:48;;;;;;;;;1.00;1.00;;;;;20.70;49.34;101760.16;5025834;28;45628;-78
2022/06/28 02:51:13;;;;;;;;;0.00;0.00;;;;;20.67;49.59;101754.94;5027056;28;46161;-79
2022/06/28 02:53:39;;;;;;;;;0.33;0.33;;;;;20.57;49.53;101743.00;5022620;28;45614;-78
2022/06/28 02:56:05;;;;;;;;;1.00;1.00;;;;;20.50;49.56;101733.56;5033388;28;45367;-78
2022/06/28 02:58:30;;;;;;;;;0.00;0.00;;;;;20.66;49.38;101766.75;5028378;28;45456;-78
2022/06/28 03:00:56;;;;;;;;;0.33;0.00;;;;;20.56;48.76;101749.41;5025400;28;45847;-79
2022/06/28 03:03:21;;;;;;;;;0.00;0.00;;;;;20.64;49.30;101772.25;5024783;28;45578;-78
2022/06/28 03:05:46;;;;;;;;;0.00;0.00;;;;;20.63;49.13;101775.09;5030998;28;45521;-78
2022/06/28 03:08:12;;;;;;;;;0.00;0.00;;;;;20.61;49.09;101769.78;5025971;28;45507;-78
2022/06/28 03:10:37;;;;;;;;;0.33;0.00;;;;;20.58;49.16;101769.13;5019308;28;46930;-78
2022/06/28 03:13:03;;;;;;;;;0.00;0.00;;;;;20.43;49.07;101747.50;5026891;28;45364;-79
2022/06/28 03:15:28;;;;;;;;;0.00;0.00;;;;;20.58;49.60;101767.28;5022779;28;45820;-78
2022/06/28 03:17:54;;;;;;;;;0.00;0.00;;;;;20.50;49.17;101758.78;5021261;28;45424;-78
2022/06/28 03:20:19;;;;;;;;;0.00;0.00;;;;;20.40;49.57;101747.72;5028774;28;46257;-78
2022/06/28 03:22:45;;;;;;;;;1.00;1.00;;;;;20.40;49.81;101755.84;5023433;28;45417;-79
2022/06/28 03:25:10;;;;;;;;;0.33;0.00;;;;;20.45;49.84;101764.53;5027248;28;45470;-78
2022/06/28 03:27:36;;;;;;;;;0.00;0.00;;;;;20.47;49.83;101763.56;5026425;28;45421;-79
2022/06/28 03:30:03;;;;;;;;;1.00;1.00;;;;;20.42;50.27;101770.16;5025838;28;46006;-80
2022/06/28 03:32:29;;;;;;;;;1.33;1.00;;;;;20.23;50.15;101740.78;5024325;28;45648;-79
2022/06/28 03:34:54;;;;;;;;;0.00;0.00;;;;;20.37;49.90;101769.63;5028480;28;45536;-78
2022/06/28 03:37:19;;;;;;;;;0.67;0.67;;;;;20.28;50.15;101756.69;5023551;28;45599;-79
2022/06/28 03:39:45;;;;;;;;;0.00;0.00;;;;;20.34;49.99;101771.66;5003560;28;47289;-79
2022/06/28 03:42:10;;;;;;;;;0.00;0.00;;;;;20.33;50.56;101769.94;5025317;28;45453;-79
2022/06/28 03:44:35;;;;;;;;;0.00;0.00;;;;;20.27;50.39;101765.78;5025595;28;45499;-78
2022/06/28 03:47:01;;;;;;;;;3.00;1.00;;;;;20.15;50.52;101756.66;5030988;28;45651;-78
2022/06/28 03:49:27;;;;;;;;;0.00;0.00;;;;;20.24;50.55;101779.53;5027891;28;46656;-78
2022/06/28 03:51:52;;;;;;;;;0.00;0.00;;;;;20.22;50.31;101779.63;5008882;28;45489;-78
2022/06/28 03:54:17;;;;;;;;;1.33;0.00;;;;;20.15;50.96;101766.63;5023269;28;45464;-79
2022/06/28 03:56:43;;;;;;;;;0.00;0.00;;;;;19.94;50.46;101728.34;5030396;28;45653;-78
2022/06/28 03:59:08;;;;;;;;;0.00;0.00;;;;;20.05;50.42;101755.56;5031454;28;45274;-78
2022/06/28 04:01:33;;;;;;;;;1.33;0.00;;;;;20.13;51.35;101773.97;5029127;28;45430;-78
2022/06/28 04:03:59;;;;;;;;;0.33;0.33;;;;;20.10;51.08;101777.75;5026812;28;52041;-78
2022/06/28 04:06:24;;;;;;;;;1.67;1.00;;;;;20.14;50.80;101781.16;5032664;28;45543;-78
2022/06/28 04:08:49;;;;;;;;;1.00;1.00;;;;;20.04;51.04;101772.75;5026612;28;50444;-78
2022/06/28 04:11:15;;;;;;;;;0.00;0.00;;;;;20.06;51.41;101775.38;5025977;28;51729;-78
2022/06/28 04:13:52;;;;;;;;;2.00;2.00;;;;;20.08;51.29;101784.25;5023329;28;45479;-78
2022/06/28 04:16:19;;;;;;;;;0.00;0.00;;;;;20.03;51.17;101785.41;5032039;28;45440;-78
2022/06/28 04:18:45;;;;;;;;;2.00;1.00;;;;;20.05;51.31;101788.03;5028760;28;46298;-78
2022/06/28 04:21:13;;;;;;;;;0.00;0.00;;;;;19.90;51.08;101760.19;5028954;28;45772;-79
2022/06/28 04:23:38;;;;;;;;;0.00;0.00;;;;;19.92;50.90;101763.63;5030352;28;45426;-78
2022/06/28 04:26:04;;;;;;;;;0.00;0.00;;;;;19.98;50.90;101771.34;5030992;28;45645;-78
2022/06/28 04:28:29;;;;;;;;;2.00;0.00;;;;;19.95;50.85;101765.28;5028795;28;46688;-79
2022/06/28 04:30:55;;;;;;;;;0.00;0.00;;;;;20.03;50.84;101789.97;5022824;28;45532;-78
2022/06/28 04:33:20;;;;;;;;;1.67;0.33;;;;;20.05;51.05;101784.47;5026711;28;45605;-79
2022/06/28 04:35:46;;;;;;;;;0.00;0.00;;;;;20.05;51.33;101792.59;5028094;28;45383;-78
2022/06/28 04:38:11;;;;;;;;;1.00;1.00;;;;;19.89;50.91;101765.69;5031826;28;50416;-78
2022/06/28 04:40:37;;;;;;;;;0.00;0.00;;;;;20.05;50.93;101790.75;5022261;28;45874;-78
2022/06/28 04:43:02;;;;;;;;;0.00;0.00;;;;;19.91;51.23;101764.59;5029183;28;45439;-78
2022/06/28 04:45:29;;;;;;;;;0.33;0.33;;;;;20.00;51.27;101787.47;5024760;28;45390;-78
2022/06/28 04:47:54;;;;;;;;;2.00;0.33;;;;;20.07;50.75;101794.22;5028486;28;47062;-77
2022/06/28 04:50:19;;;;;;;;;2.33;1.00;;;;;20.08;50.35;101798.66;5031636;28;45421;-78
2022/06/28 04:52:45;;;;;;;;;0.00;0.00;;;;;20.01;50.74;101787.34;5030212;28;45887;-78
2022/06/28 04:55:10;;;;;;;;;2.67;0.33;;;;;20.04;50.44;101794.41;5022572;28;45581;-78
2022/06/28 04:57:35;;;;;;;;;1.00;1.00;;;;;19.99;50.15;101773.09;5026162;28;46197;-78
2022/06/28 05:00:02;;;;;;;;;1.00;1.00;;;;;20.14;49.56;101786.56;5029839;28;45680;-77
2022/06/28 05:02:27;;;;;;;;;1.00;1.00;;;;;20.15;49.64;101794.56;5028289;28;45724;-77
2022/06/28 05:04:52;;;;;;;;;2.00;0.00;;;;;20.06;49.52;101769.94;5028049;28;45360;-78
2022/06/28 05:07:18;;;;;;;;;1.67;1.00;;;;;20.01;49.00;101768.41;5028466;28;47011;-78
2022/06/28 05:09:43;;;;;;;;;0.33;0.33;;;;;20.23;49.37;101796.78;5016592;28;45455;-78
2022/06/28 05:12:09;;;;;;;;;1.67;0.00;;;;;20.25;48.92;101797.50;5029942;28;45473;-78
2022/06/28 05:14:35;;;;;;;;;0.00;0.00;;;;;20.24;49.54;101795.78;5022249;28;46590;-78
2022/06/28 05:17:01;;;;;;;;;0.00;0.00;;;;;20.24;48.87;101795.78;5024059;28;46569;-78
2022/06/28 05:19:27;;;;;;;;;1.00;1.00;;;;;20.23;49.18;101794.06;5028031;28;45575;-78
2022/06/28 05:21:52;;;;;;;;;0.33;0.33;;;;;20.34;48.72;101804.16;5022897;28;45706;-79
2022/06/28 05:24:18;;;;;;;;;0.00;0.00;;;;;20.14;48.98;101773.03;5024131;28;45484;-78
2022/06/28 05:26:43;;;;;;;;;0.00;0.00;;;;;20.38;48.77;101798.41;5018534;28;46144;-79
2022/06/28 05:29:09;;;;;;;;;0.00;0.00;;;;;20.38;48.22;101794.84;5022428;28;45529;-78
2022/06/28 05:31:35;;;;;;;;;0.00;0.00;;;;;20.29;48.37;101771.09;5017355;28;45527;-79
2022/06/28 05:34:02;;;;;;;;;0.33;0.33;;;;;20.48;48.23;101789.66;5025978;28;45933;-82
2022/06/28 05:36:27;;;;;;;;;1.00;0.00;;;;;20.53;47.70;101804.59;5014176;28;47351;-81
2022/06/28 05:38:53;;;;;;;;;0.00;0.00;;;;;20.51;47.62;101806.59;5023419;28;45878;-81
2022/06/28 05:41:18;;;;;;;;;0.00;0.00;;;;;20.49;47.97;101794.97;5024976;28;45573;-81
2022/06/28 05:43:44;;;;;;;;;0.67;0.67;;;;;20.38;47.93;101765.06;5010623;28;45623;-80
2022/06/28 05:46:09;;;;;;;;;1.00;1.00;;;;;20.64;47.88;101801.19;5023842;28;46560;-81
2022/06/28 05:48:34;;;;;;;;;0.00;0.00;;;;;20.40;47.65;101746.88;5030517;28;45573;-81
2022/06/28 05:51:00;;;;;;;;;1.00;1.00;;;;;20.69;47.62;101792.75;5028307;28;45468;-80
2022/06/28 05:53:25;;;;;;;;;0.33;0.33;;;;;20.66;47.14;101767.59;5028294;28;45465;-80
2022/06/28 05:55:51;;;;;;;;;1.00;0.00;;;;;20.72;47.84;101782.59;5022154;28;45593;-80
2022/06/28 05:58:16;;;;;;;;;1.00;1.00;;;;;20.73;47.38;101775.31;5024896;28;45404;-80
2022/06/28 06:00:41;;;;;;;;;3.00;0.00;;;;;20.75;47.46;101766.09;5019224;28;45668;-80
2022/06/28 06:03:07;;;;;;;;;1.00;1.00;;;;;20.91;46.91;101773.13;5031905;28;48529;-81
2022/06/28 06:05:32;;;;;;;;;0.67;0.67;;;;;20.90;46.70;101772.28;5023772;28;47727;-81
2022/06/28 06:07:58;;;;;;;;;3.00;2.00;;;;;21.07;46.61;101798.16;5013164;28;45582;-81
2022/06/28 06:10:23;;;;;;;;;0.00;0.00;;;;;21.11;47.01;101796.13;5024578;28;45368;-81
2022/06/28 06:12:49;;;;;;;;;0.00;0.00;;;;;21.14;47.10;101796.78;5025685;28;45598;-82
2022/06/28 06:15:14;;;;;;;;;3.00;2.00;;;;;21.00;46.75;101773.38;5025285;28;46013;-83
2022/06/28 06:17:40;;;;;;;;;1.00;1.00;;;;;20.98;46.84;101763.63;5021317;28;45575;-81
2022/06/28 06:20:06;;;;;;;;;0.00;0.00;;;;;21.03;46.69;101770.44;5017633;28;45323;-83
2022/06/28 06:22:35;;;;;;;;;1.00;1.00;;;;;20.96;46.89;101757.44;5027755;28;45554;-84
2022/06/28 06:25:00;;;;;;;;;1.00;1.00;;;;;20.89;46.72;101732.63;5028828;28;46658;-85
2022/06/28 06:27:50;;;;;;;;;2.00;2.00;;;;;21.16;46.66;101774.97;5025291;28;45823;-87
2022/06/28 06:31:01;;;;;;;;;1.00;1.00;;;;;20.06;46.15;101607.56;5150142;23;45461;-88
2022/06/28 06:33:48;;;;;;;;;2.00;1.00;;;;;19.97;46.14;101590.13;5042397;28;45571;-87
2022/06/28 06:36:22;;;;;;;;;1.00;1.00;;;;;20.55;46.20;101680.78;5050969;28;46601;-86
2022/06/28 06:39:07;;;;;;;;;2.33;2.00;;;;;21.19;46.53;101791.00;5051467;28;45467;-85
2022/06/28 06:41:33;;;;;;;;;2.00;1.00;;;;;20.87;46.97;101716.44;5052590;28;45463;-86
2022/06/28 06:43:58;;;;;;;;;1.00;1.00;;;;;21.08;46.52;101732.16;5054657;28;45811;-85
2022/06/28 06:46:23;;;;;;;;;4.33;4.33;;;;;21.12;46.27;101736.38;5047100;28;47963;-88
2022/06/28 06:48:50;;;;;;;;;1.00;1.00;;;;;21.30;46.03;101758.56;5053887;28;45358;-87
2022/06/28 06:51:15;;;;;;;;;0.33;0.33;;;;;20.97;45.86;101711.22;5049454;28;46542;-87
2022/06/28 06:53:40;;;;;;;;;1.00;1.00;;;;;20.87;45.76;101683.94;5049594;28;45425;-86
2022/06/28 06:56:06;;;;;;;;;2.00;1.00;;;;;21.42;45.24;101775.81;5039398;28;46287;-86
2022/06/28 06:58:31;;;;;;;;;0.33;0.33;;;;;21.39;44.70;101759.75;5041342;28;45455;-82
2022/06/28 07:00:57;;;;;;;;;1.67;1.67;;;;;21.33;44.59;101739.38;5021200;28;45408;-82
2022/06/28 07:03:23;;;;;;;;;2.00;1.00;;;;;21.53;45.32;101759.63;5039586;28;45493;-82
2022/06/28 07:05:49;;;;;;;;;0.00;0.00;;;;;21.53;44.20;101761.47;5023727;28;47165;-82
2022/06/28 07:08:14;;;;;;;;;1.33;1.00;;;;;21.30;44.22;101717.88;5040128;28;45487;-83
2022/06/28 07:10:39;;;;;;;;;2.00;0.00;;;;;21.47;44.15;101741.97;5032639;28;45466;-82
2022/06/28 07:13:05;;;;;;;;;0.67;0.67;;;;;21.47;44.06;101733.81;5042650;28;45457;-83
2022/06/28 07:15:30;;;;;;;;;0.00;0.00;;;;;21.74;44.05;101754.44;5044177;28;46056;-82
2022/06/28 07:17:55;;;;;;;;;2.33;1.00;;;;;21.83;44.75;101751.03;5050458;28;48002;-85
2022/06/28 07:20:21;;;;;;;;;4.33;1.00;;;;;21.64;44.26;101697.28;5042752;28;45434;-81
2022/06/28 07:22:46;;;;;;;;;2.00;1.00;;;;;21.81;43.74;101714.16;5043534;28;45509;-82
2022/06/28 07:25:13;;;;;;;;;3.33;1.00;;;;;22.00;43.73;101746.19;5045624;28;45964;-81
2022/06/28 07:27:38;;;;;;;;;1.00;1.00;;;;;21.68;43.26;101670.78;5047706;28;45527;-80
2022/06/28 07:30:04;;;;;;;;;1.67;1.67;;;;;21.74;43.91;101672.19;5045878;28;45515;-79
2022/06/28 07:32:29;;;;;;;;;2.00;1.00;;;;;22.10;43.76;101722.75;5049978;28;45586;-90
2022/06/28 07:34:55;;;;;;;;;1.00;1.00;;;;;21.78;43.80;101660.13;5055232;28;46650;-84
2022/06/28 07:37:20;;;;;;;;;2.33;2.00;;;;;21.90;43.29;101668.16;5043994;28;45576;-83
2022/06/28 07:39:46;;;;;;;;;1.67;1.33;;;;;21.95;43.09;101661.53;5054462;28;45395;-82
2022/06/28 07:42:11;;;;;;;;;1.33;0.00;;;;;22.17;42.72;101706.88;5054713;28;45665;-82
2022/06/28 07:44:36;;;;;;;;;0.33;0.33;;;;;22.31;43.59;101712.13;5049639;28;46914;-82
2022/06/28 07:47:04;;;;;;;;;1.00;1.00;;;;;22.19;43.41;101677.75;5058496;28;45492;-84
2022/06/28 07:52:33;;;;;;;;;0.00;0.00;;;;;22.45;42.94;101709.22;5012230;28;45604;-82
2022/06/28 07:54:59;;;;;;;;;1.00;1.00;;;;;22.22;42.89;101662.13;4995074;28;48529;-83
2022/06/28 07:57:26;;;;;;;;;0.00;0.00;;;;;22.33;43.21;101662.13;5012123;28;45480;-83
2022/06/28 07:59:52;;;;;;;;;1.33;1.33;;;;;22.37;42.46;101661.91;5012060;28;45806;-82
2022/06/28 08:02:17;;;;;;;;;1.00;1.00;;;;;22.29;41.84;101647.06;5014543;28;45705;-82
2022/06/28 08:04:43;;;;;;;;;2.00;1.00;;;;;22.27;42.25;101646.31;5011268;28;47335;-82
2022/06/28 08:07:08;;;;;;;;;0.00;0.00;;;;;22.67;42.14;101704.78;5006057;28;45786;-85
2022/06/28 08:09:34;;;;;;;;;0.00;0.00;;;;;22.52;42.03;101650.69;5011658;28;45482;-85
2022/06/28 08:11:59;;;;;;;;;3.00;1.00;;;;;22.57;42.19;101649.44;5014406;28;45418;-86
2022/06/28 08:14:24;;;;;;;;;0.00;0.00;;;;;22.73;41.64;101664.41;4998096;28;47875;-83
2022/06/28 08:16:50;;;;;;;;;0.00;0.00;;;;;22.86;41.32;101677.84;5015421;28;45621;-82
2022/06/28 08:19:15;;;;;;;;;3.33;0.67;;;;;22.73;42.18;101637.22;5005242;28;45483;-81
2022/06/28 08:21:44;;;;;;;;;1.00;1.00;;;;;23.00;41.36;101663.19;5003784;28;45862;-84
2022/06/28 08:24:09;;;;;;;;;0.00;0.00;;;;;23.05;40.83;101654.66;4994898;28;46688;-84
2022/06/28 08:26:42;;;;;;;;;0.33;0.33;;;;;23.23;40.49;101674.03;4998267;28;45461;-80
2022/06/28 08:29:07;;;;;;;;;1.00;1.00;;;;;23.38;40.09;101667.31;5009505;28;45810;-81
2022/06/28 08:31:33;;;;;;;;;1.00;1.00;;;;;23.71;39.46;101669.03;5027261;28;45350;-79
2022/06/28 08:33:58;;;;;;;;;2.67;1.00;;;;;24.28;38.79;101641.53;5032343;28;46525;-81
2022/06/28 08:36:23;;;;;;;;;18.67;15.33;;;;;24.88;37.15;101638.97;5014762;28;45494;-79
2022/06/28 08:38:49;;;;;;;;;1.00;1.00;;;;;24.94;37.40;101665.72;5035013;28;45424;-81
2022/06/28 08:41:14;;;;;;;;;3.00;3.00;;;;;24.82;39.00;101663.06;5035752;28;45529;-81
2022/06/28 08:43:39;;;;;;;;;0.67;0.67;;;;;24.81;38.35;101658.59;5026362;28;47415;-82
2022/06/28 08:46:05;;;;;;;;;0.00;0.00;;;;;24.71;37.38;101627.72;5031662;28;45464;-83
2022/06/28 08:48:38;;;;;;;;;1.00;1.00;;;;;24.82;37.27;101652.16;5024428;28;45391;-84
2022/06/28 08:51:07;;;;;;;;;1.67;1.00;;;;;24.71;36.98;101621.41;5029989;28;45575;-85
2022/06/28 08:53:33;;;;;;;;;1.00;1.00;;;;;25.05;37.60;101638.28;5034089;28;45921;-83
2022/06/28 08:55:59;;;;;;;;;3.00;2.00;;;;;25.11;37.44;101605.00;5032955;28;45472;-85
2022/06/28 08:58:26;;;;;;;;;2.33;1.00;;;;;25.38;36.75;101607.09;5023293;28;45421;-86
2022/06/28 09:00:51;;;;;;;;;1.00;1.00;;;;;25.70;36.15;101603.19;5010045;28;46090;-85
2022/06/28 09:03:18;;;;;;;;;2.00;1.00;;;;;26.11;35.03;101621.16;5032894;28;45736;-83
2022/06/28 09:05:44;;;;;;;;;0.67;0.33;;;;;26.28;33.98;101575.78;5032522;28;45416;-87
2022/06/28 09:08:09;;;;;;;;;1.00;1.00;;;;;26.89;33.36;101599.00;5023595;28;45874;-86
2022/06/28 09:10:34;;;;;;;;;0.00;0.00;;;;;26.55;33.52;101466.63;5030960;28;45722;-85
2022/06/28 09:13:20;;;;;;;;;1.00;1.00;;;;;27.68;32.56;101575.50;5026858;28;47096;-88
2022/06/28 09:15:59;;;;;;;;;1.00;1.00;;;;;28.26;32.12;101606.09;5030171;28;45460;-86
2022/06/28 09:18:36;;;;;;;;;1.50;1.50;;;;;28.75;31.99;101587.16;5024860;28;45618;-86
2022/06/28 09:21:08;;;;;;;;;1.00;1.00;;;;;29.19;30.24;101595.22;5034084;28;45441;-85
2022/06/28 09:23:37;;;;;;;;;0.00;0.00;;;;;29.48;29.56;101569.16;5030845;28;47168;-84
2022/06/28 09:26:17;;;;;;;;;0.33;0.33;;;;;29.82;28.96;101549.75;5035141;28;45589;-84
2022/06/28 09:28:47;;;;;;;;;0.75;0.00;;;;;30.39;28.70;101568.94;5032511;28;45531;-85
2022/06/28 09:31:19;;;;;;;;;5.00;1.33;;;;;30.63;27.67;101559.69;5013053;28;45828;-85
2022/06/28 09:33:59;;;;;;;;;0.75;0.75;;;;;30.90;27.90;101563.03;5031150;28;46740;-91
2022/06/28 09:36:24;;;;;;;;;0.00;0.00;;;;;31.06;26.37;101538.13;5027296;28;45479;-84
2022/06/28 09:38:50;;;;;;;;;1.00;1.00;;;;;31.32;26.87;101540.53;5030702;28;46668;-83
2022/06/28 09:41:20;;;;;;;;;0.00;0.00;;;;;31.74;26.35;101554.84;5031464;28;45830;-85
2022/06/28 09:43:57;;;;;;;;;2.00;0.00;;;;;31.99;26.13;101552.72;5032155;28;50322;-85
2022/06/28 09:46:26;;;;;;;;;16.67;14.00;;;;;32.14;25.78;101561.00;5030918;28;45478;-85
2022/06/28 09:48:56;;;;;;;;;2.00;2.00;;;;;31.96;25.44;101523.63;5031437;28;45601;-89
2022/06/28 09:51:23;;;;;;;;;1.00;1.00;;;;;31.93;25.37;101559.81;5032216;28;45513;-89
2022/06/28 09:53:52;;;;;;;;;0.00;0.00;;;;;31.92;25.20;101551.75;5033664;28;46979;-91
2022/06/28 09:56:21;;;;;;;;;1.00;1.00;;;;;31.98;23.87;101539.13;5026953;28;45373;-88
2022/06/28 09:58:48;;;;;;;;;2.00;1.00;;;;;32.06;24.07;101550.09;5014294;28;45361;-90
2022/06/28 10:01:14;;;;;;;;;0.67;0.67;;;;;32.15;24.27;101527.72;5009673;28;45587;-90
2022/06/28 10:03:39;;;;;;;;;0.00;0.00;;;;;32.12;23.75;101461.03;5034027;28;45532;-92
2022/06/28 10:06:05;;;;;;;;;1.33;0.00;;;;;32.43;24.22;101460.81;5027079;28;45424;-90
2022/06/28 10:08:32;;;;;;;;;1.00;1.00;;;;;32.55;24.12;101434.44;5015674;28;45360;-91
2022/06/28 10:10:57;;;;;;;;;0.00;0.00;;;;;32.93;22.93;101466.47;5033110;28;45710;-88
2022/06/28 10:16:33;;;;;;;;;0.00;0.00;;;;;33.52;22.43;101518.69;5029548;28;45459;-92
2022/06/28 10:19:01;;;;;;;;;0.33;0.33;;;;;33.06;21.97;101422.47;4948888;28;45554;-93
2022/06/28 10:21:44;;;;;;;;;0.00;0.00;;;;;33.56;22.34;101499.81;4947572;28;45537;-92
2022/06/28 10:24:10;;;;;;;;;0.00;0.00;;;;;33.89;22.01;101515.81;4954876;28;47434;-95
2022/06/28 10:27:13;;;;;;;;;1.00;1.00;;;;;34.18;22.84;101515.59;4954031;28;45449;-89
2022/06/28 10:29:57;;;;;;;;;0.00;0.00;;;;;34.40;22.06;101507.19;4954488;28;46407;-93
2022/06/28 10:32:41;;;;;;;;;0.00;0.00;;;;;34.38;21.60;101470.56;4955876;28;45245;-87
2022/06/28 10:35:07;;;;;;;;;0.00;0.00;;;;;34.77;21.62;101499.47;4962342;28;45637;-85
2022/06/28 10:37:33;;;;;;;;;0.00;0.00;;;;;34.98;21.85;101498.44;4957762;28;45269;-95
2022/06/28 10:43:08;;;;;;;;;0.00;0.00;;;;;34.91;20.81;101492.91;5076637;22;45576;-88
2022/06/28 10:46:06;;;;;;;;;0.00;0.00;;;;;35.03;20.53;101491.22;5075372;28;48342;-88
2022/06/28 10:48:51;;;;;;;;;1.33;0.67;;;;;35.12;21.59;101480.78;5070590;28;45366;-87
2022/06/28 10:51:19;;;;;;;;;0.00;0.00;;;;;35.18;20.35;101490.19;5082619;28;45392;-82
2022/06/28 10:54:04;;;;;;;;;1.00;0.00;;;;;35.24;20.94;101483.81;5075604;28;45390;-84
2022/06/28 10:56:31;;;;;;;;;0.00;0.00;;;;;35.26;20.54;101487.22;5077784;28;45729;-88
2022/06/28 10:58:59;;;;;;;;;0.00;0.00;;;;;35.04;20.64;101465.22;5075918;28;45490;-86
2022/06/28 11:01:42;;;;;;;;;0.00;0.00;;;;;34.83;21.05;101446.84;5074620;28;45459;-87
2022/06/28 11:04:11;;;;;;;;;0.00;0.00;;;;;34.92;20.87;101483.53;5075492;28;45637;-87
2022/06/28 11:06:47;;;;;;;;;0.00;0.00;;;;;34.63;20.95;101445.94;5074720;28;47139;-88
2022/06/28 11:09:30;;;;;;;;;2.00;1.00;;;;;34.81;20.14;101471.13;5075464;28;46277;-85
2022/06/28 11:12:11;;;;;;;;;0.00;0.00;;;;;34.57;20.89;101471.69;5075125;28;45419;-87
2022/06/28 11:14:57;;;;;;;;;0.00;0.00;;;;;34.42;21.42;101453.34;5070278;28;45446;-89
2022/06/28 11:17:30;;;;;;;;;0.00;0.00;;;;;34.44;21.21;101458.66;5074414;28;47352;-90
2022/06/28 11:20:00;;;;;;;;;0.00;0.00;;;;;34.16;20.30;101422.78;5075515;28;45392;-90
2022/06/28 11:22:31;;;;;;;;;0.67;0.67;;;;;34.05;19.84;101436.13;5074659;28;45658;-85
2022/06/28 11:25:02;;;;;;;;;0.33;0.33;;;;;34.08;20.19;101484.66;5075280;28;45672;-87
2022/06/28 11:27:27;;;;;;;;;1.00;1.00;;;;;33.97;20.63;101475.00;5070150;28;48511;-87
2022/06/28 11:30:14;;;;;;;;;1.33;1.33;;;;;33.93;21.26;101465.44;5056175;28;45543;-86
2022/06/28 11:32:43;;;;;;;;;0.00;0.00;;;;;33.73;20.31;101434.03;5069817;28;45481;-86
2022/06/28 11:35:15;;;;;;;;;1.00;1.00;;;;;33.81;20.79;101459.63;5075484;28;45355;-86
2022/06/28 11:38:05;;;;;;;;;0.67;0.67;;;;;33.51;20.86;101434.06;5075105;28;45660;-86
2022/06/28 11:40:47;;;;;;;;;0.00;0.00;;;;;33.57;21.49;101462.84;5074701;28;45374;-84
2022/06/28 11:43:14;;;;;;;;;0.00;0.00;;;;;33.50;21.23;101459.97;5074430;28;45464;-85
2022/06/28 11:45:48;;;;;;;;;0.67;0.67;;;;;33.41;21.67;101450.13;5074654;28;45492;-84